sensor_id;sensor_type;location;lat;lon;timestamp;P1;durP1;ratioP1;P2;durP2;ratioP2
4726;SDS011;2377;51.734;8.950;2023-01-05T00:01:57;25.83;;;7.10;;
4726;SDS011;2377;51.734;8.950;2023-01-05T00:04:24;25.77;;;6.93;;
4726;SDS011;2377;51.734;8.950;2023-01-05T00:06:51;34.00;;;8.33;;
4726;SDS011;2377;51.734;8.950;2023-01-05T00:09:18;30.77;;;7.50;;
4726;SDS011;2377;51.734;8.950;2023-01-05T00:11:45;24.03;;;6.97;;
4726;SDS011;2377;51.734;8.950;2023-01-05T00:14:31;33.53;;;7.63;;
4726;SDS011;2377;51.734;8.950;2023-01-05T00:17:19;33.93;;;8.20;;
4726;SDS011;2377;51.734;8.950;2023-01-05T00:20:09;38.80;;;8.43;;
4726;SDS011;2377;51.734;8.950;2023-01-05T00:23:05;30.03;;;8.23;;
4726;SDS011;2377;51.734;8.950;2023-01-05T00:25:35;30.70;;;8.13;;
4726;SDS011;2377;51.734;8.950;2023-01-05T00:28:05;28.67;;;8.50;;
4726;SDS011;2377;51.734;8.950;2023-01-05T00:30:35;29.33;;;8.07;;
4726;SDS011;2377;51.734;8.950;2023-01-05T00:33:08;33.57;;;8.00;;
4726;SDS011;2377;51.734;8.950;2023-01-05T00:35:36;30.27;;;7.77;;
4726;SDS011;2377;51.734;8.950;2023-01-05T00:38:03;32.80;;;7.87;;
4726;SDS011;2377;51.734;8.950;2023-01-05T00:40:31;27.80;;;7.13;;
4726;SDS011;2377;51.734;8.950;2023-01-05T00:43:00;26.60;;;7.07;;
4726;SDS011;2377;51.734;8.950;2023-01-05T00:45:28;25.17;;;6.73;;
4726;SDS011;2377;51.734;8.950;2023-01-05T00:47:55;32.37;;;8.23;;
4726;SDS011;2377;51.734;8.950;2023-01-05T00:50:23;29.03;;;7.00;;
4726;SDS011;2377;51.734;8.950;2023-01-05T00:52:51;26.90;;;6.90;;
4726;SDS011;2377;51.734;8.950;2023-01-05T00:55:18;38.97;;;7.10;;
4726;SDS011;2377;51.734;8.950;2023-01-05T00:57:45;34.83;;;7.67;;
4726;SDS011;2377;51.734;8.950;2023-01-05T01:00:12;34.07;;;8.10;;
4726;SDS011;2377;51.734;8.950;2023-01-05T01:02:43;27.90;;;7.63;;
4726;SDS011;2377;51.734;8.950;2023-01-05T01:05:11;41.53;;;8.80;;
4726;SDS011;2377;51.734;8.950;2023-01-05T01:07:40;37.20;;;8.90;;
4726;SDS011;2377;51.734;8.950;2023-01-05T01:10:08;32.73;;;8.70;;
4726;SDS011;2377;51.734;8.950;2023-01-05T01:12:36;27.20;;;7.60;;
4726;SDS011;2377;51.734;8.950;2023-01-05T01:15:04;32.60;;;6.70;;
4726;SDS011;2377;51.734;8.950;2023-01-05T01:17:33;28.90;;;7.50;;
4726;SDS011;2377;51.734;8.950;2023-01-05T01:20:00;31.50;;;7.17;;
4726;SDS011;2377;51.734;8.950;2023-01-05T01:22:28;29.20;;;6.03;;
4726;SDS011;2377;51.734;8.950;2023-01-05T01:24:57;38.27;;;7.33;;
4726;SDS011;2377;51.734;8.950;2023-01-05T01:27:25;26.07;;;5.70;;
4726;SDS011;2377;51.734;8.950;2023-01-05T01:29:52;34.60;;;7.73;;
4726;SDS011;2377;51.734;8.950;2023-01-05T01:32:19;47.00;;;7.63;;
4726;SDS011;2377;51.734;8.950;2023-01-05T01:34:48;27.50;;;6.17;;
4726;SDS011;2377;51.734;8.950;2023-01-05T01:37:15;21.83;;;5.77;;
4726;SDS011;2377;51.734;8.950;2023-01-05T01:39:42;26.57;;;5.27;;
4726;SDS011;2377;51.734;8.950;2023-01-05T01:42:12;25.30;;;6.10;;
4726;SDS011;2377;51.734;8.950;2023-01-05T01:44:47;32.23;;;5.83;;
4726;SDS011;2377;51.734;8.950;2023-01-05T01:47:22;27.77;;;5.37;;
4726;SDS011;2377;51.734;8.950;2023-01-05T01:49:58;28.07;;;4.40;;
4726;SDS011;2377;51.734;8.950;2023-01-05T01:52:31;37.63;;;5.23;;
4726;SDS011;2377;51.734;8.950;2023-01-05T01:55:00;30.17;;;5.33;;
4726;SDS011;2377;51.734;8.950;2023-01-05T01:57:33;19.60;;;4.43;;
4726;SDS011;2377;51.734;8.950;2023-01-05T02:00:03;22.13;;;4.40;;
4726;SDS011;2377;51.734;8.950;2023-01-05T02:02:34;31.03;;;6.80;;
4726;SDS011;2377;51.734;8.950;2023-01-05T02:05:02;20.00;;;4.57;;
4726;SDS011;2377;51.734;8.950;2023-01-05T02:07:36;27.53;;;5.27;;
4726;SDS011;2377;51.734;8.950;2023-01-05T02:10:10;23.33;;;4.97;;
4726;SDS011;2377;51.734;8.950;2023-01-05T02:12:41;30.73;;;5.00;;
4726;SDS011;2377;51.734;8.950;2023-01-05T02:15:31;25.70;;;5.00;;
4726;SDS011;2377;51.734;8.950;2023-01-05T02:18:22;27.53;;;5.70;;
4726;SDS011;2377;51.734;8.950;2023-01-05T02:21:14;28.53;;;5.20;;
4726;SDS011;2377;51.734;8.950;2023-01-05T02:24:03;25.43;;;5.20;;
4726;SDS011;2377;51.734;8.950;2023-01-05T02:30:18;26.17;;;5.50;;
4726;SDS011;2377;51.734;8.950;2023-01-05T02:33:31;23.33;;;5.00;;
4726;SDS011;2377;51.734;8.950;2023-01-05T02:36:19;24.97;;;5.40;;
4726;SDS011;2377;51.734;8.950;2023-01-05T02:38:56;27.93;;;5.40;;
4726;SDS011;2377;51.734;8.950;2023-01-05T02:41:32;16.13;;;3.90;;
4726;SDS011;2377;51.734;8.950;2023-01-05T02:44:05;26.90;;;5.03;;
4726;SDS011;2377;51.734;8.950;2023-01-05T02:46:35;29.80;;;5.60;;
4726;SDS011;2377;51.734;8.950;2023-01-05T02:49:02;21.30;;;5.00;;
4726;SDS011;2377;51.734;8.950;2023-01-05T02:51:32;16.30;;;3.47;;
4726;SDS011;2377;51.734;8.950;2023-01-05T02:54:05;17.47;;;3.73;;
4726;SDS011;2377;51.734;8.950;2023-01-05T02:56:40;30.20;;;4.83;;
4726;SDS011;2377;51.734;8.950;2023-01-05T02:59:13;34.27;;;5.53;;
4726;SDS011;2377;51.734;8.950;2023-01-05T03:01:49;22.60;;;4.67;;
4726;SDS011;2377;51.734;8.950;2023-01-05T03:04:23;18.87;;;4.90;;
4726;SDS011;2377;51.734;8.950;2023-01-05T03:07:00;22.63;;;5.30;;
4726;SDS011;2377;51.734;8.950;2023-01-05T03:09:32;25.03;;;4.50;;
4726;SDS011;2377;51.734;8.950;2023-01-05T03:12:06;25.93;;;5.10;;
4726;SDS011;2377;51.734;8.950;2023-01-05T03:15:02;31.43;;;5.87;;
4726;SDS011;2377;51.734;8.950;2023-01-05T03:17:39;29.70;;;5.00;;
4726;SDS011;2377;51.734;8.950;2023-01-05T03:20:12;33.83;;;5.60;;
4726;SDS011;2377;51.734;8.950;2023-01-05T03:22:43;27.37;;;5.43;;
4726;SDS011;2377;51.734;8.950;2023-01-05T03:25:36;30.07;;;5.30;;
4726;SDS011;2377;51.734;8.950;2023-01-05T03:28:23;35.57;;;5.07;;
4726;SDS011;2377;51.734;8.950;2023-01-05T03:31:12;31.30;;;5.10;;
4726;SDS011;2377;51.734;8.950;2023-01-05T03:34:08;24.27;;;5.60;;
4726;SDS011;2377;51.734;8.950;2023-01-05T03:37:02;25.17;;;5.37;;
4726;SDS011;2377;51.734;8.950;2023-01-05T03:39:34;28.37;;;5.90;;
4726;SDS011;2377;51.734;8.950;2023-01-05T03:42:07;23.97;;;5.30;;
4726;SDS011;2377;51.734;8.950;2023-01-05T03:44:36;29.03;;;5.50;;
4726;SDS011;2377;51.734;8.950;2023-01-05T03:47:04;26.37;;;5.73;;
4726;SDS011;2377;51.734;8.950;2023-01-05T03:49:33;26.20;;;5.70;;
4726;SDS011;2377;51.734;8.950;2023-01-05T03:52:01;32.03;;;5.67;;
4726;SDS011;2377;51.734;8.950;2023-01-05T03:54:29;26.30;;;5.03;;
4726;SDS011;2377;51.734;8.950;2023-01-05T03:56:56;28.97;;;5.70;;
4726;SDS011;2377;51.734;8.950;2023-01-05T03:59:23;25.00;;;5.17;;
4726;SDS011;2377;51.734;8.950;2023-01-05T04:01:50;28.30;;;5.80;;
4726;SDS011;2377;51.734;8.950;2023-01-05T04:04:17;35.07;;;5.63;;
4726;SDS011;2377;51.734;8.950;2023-01-05T04:06:46;28.63;;;7.93;;
4726;SDS011;2377;51.734;8.950;2023-01-05T04:09:13;29.33;;;5.53;;
4726;SDS011;2377;51.734;8.950;2023-01-05T04:11:40;22.63;;;5.43;;
4726;SDS011;2377;51.734;8.950;2023-01-05T04:14:07;35.93;;;6.03;;
4726;SDS011;2377;51.734;8.950;2023-01-05T04:16:34;31.00;;;5.93;;
4726;SDS011;2377;51.734;8.950;2023-01-05T04:19:01;25.70;;;5.43;;
4726;SDS011;2377;51.734;8.950;2023-01-05T04:21:28;31.43;;;5.33;;
4726;SDS011;2377;51.734;8.950;2023-01-05T04:23:56;27.23;;;6.07;;
4726;SDS011;2377;51.734;8.950;2023-01-05T04:26:23;26.00;;;4.90;;
4726;SDS011;2377;51.734;8.950;2023-01-05T04:28:50;32.63;;;6.67;;
4726;SDS011;2377;51.734;8.950;2023-01-05T04:31:18;23.47;;;5.47;;
4726;SDS011;2377;51.734;8.950;2023-01-05T04:33:45;33.50;;;6.10;;
4726;SDS011;2377;51.734;8.950;2023-01-05T04:36:12;23.93;;;5.53;;
4726;SDS011;2377;51.734;8.950;2023-01-05T04:38:39;23.17;;;5.23;;
4726;SDS011;2377;51.734;8.950;2023-01-05T04:41:07;33.47;;;5.73;;
4726;SDS011;2377;51.734;8.950;2023-01-05T04:43:35;28.73;;;5.30;;
4726;SDS011;2377;51.734;8.950;2023-01-05T04:46:02;32.83;;;5.23;;
4726;SDS011;2377;51.734;8.950;2023-01-05T04:48:29;23.90;;;5.57;;
4726;SDS011;2377;51.734;8.950;2023-01-05T04:50:56;26.47;;;5.73;;
4726;SDS011;2377;51.734;8.950;2023-01-05T04:53:24;29.90;;;5.70;;
4726;SDS011;2377;51.734;8.950;2023-01-05T04:55:51;25.30;;;6.40;;
4726;SDS011;2377;51.734;8.950;2023-01-05T04:58:19;26.83;;;5.47;;
4726;SDS011;2377;51.734;8.950;2023-01-05T05:00:46;28.17;;;6.50;;
4726;SDS011;2377;51.734;8.950;2023-01-05T05:03:14;36.60;;;6.37;;
4726;SDS011;2377;51.734;8.950;2023-01-05T05:05:42;27.87;;;5.23;;
4726;SDS011;2377;51.734;8.950;2023-01-05T05:08:09;28.53;;;5.63;;
4726;SDS011;2377;51.734;8.950;2023-01-05T05:10:36;27.10;;;5.17;;
4726;SDS011;2377;51.734;8.950;2023-01-05T05:13:03;30.67;;;5.63;;
4726;SDS011;2377;51.734;8.950;2023-01-05T05:15:32;28.20;;;6.13;;
4726;SDS011;2377;51.734;8.950;2023-01-05T05:17:59;20.80;;;5.90;;
4726;SDS011;2377;51.734;8.950;2023-01-05T05:20:26;32.63;;;6.30;;
4726;SDS011;2377;51.734;8.950;2023-01-05T05:22:53;25.17;;;5.30;;
4726;SDS011;2377;51.734;8.950;2023-01-05T05:25:20;32.70;;;5.07;;
4726;SDS011;2377;51.734;8.950;2023-01-05T05:27:47;22.90;;;6.10;;
4726;SDS011;2377;51.734;8.950;2023-01-05T05:30:14;20.40;;;4.90;;
4726;SDS011;2377;51.734;8.950;2023-01-05T05:32:42;20.73;;;6.00;;
4726;SDS011;2377;51.734;8.950;2023-01-05T05:35:10;24.43;;;5.13;;
4726;SDS011;2377;51.734;8.950;2023-01-05T05:37:37;30.10;;;6.17;;
4726;SDS011;2377;51.734;8.950;2023-01-05T05:40:04;24.73;;;6.07;;
4726;SDS011;2377;51.734;8.950;2023-01-05T05:42:32;23.87;;;5.23;;
4726;SDS011;2377;51.734;8.950;2023-01-05T05:44:59;25.00;;;5.50;;
4726;SDS011;2377;51.734;8.950;2023-01-05T05:47:26;35.80;;;7.27;;
4726;SDS011;2377;51.734;8.950;2023-01-05T05:49:55;25.83;;;7.73;;
4726;SDS011;2377;51.734;8.950;2023-01-05T05:52:22;26.00;;;7.10;;
4726;SDS011;2377;51.734;8.950;2023-01-05T05:54:49;27.57;;;5.63;;
4726;SDS011;2377;51.734;8.950;2023-01-05T05:57:16;22.87;;;5.07;;
4726;SDS011;2377;51.734;8.950;2023-01-05T05:59:43;26.33;;;6.83;;
4726;SDS011;2377;51.734;8.950;2023-01-05T06:02:10;26.20;;;6.07;;
4726;SDS011;2377;51.734;8.950;2023-01-05T06:04:37;26.13;;;7.40;;
4726;SDS011;2377;51.734;8.950;2023-01-05T06:07:05;24.10;;;7.10;;
4726;SDS011;2377;51.734;8.950;2023-01-05T06:09:33;19.87;;;5.93;;
4726;SDS011;2377;51.734;8.950;2023-01-05T06:12:00;23.63;;;6.50;;
4726;SDS011;2377;51.734;8.950;2023-01-05T06:14:27;17.70;;;5.93;;
4726;SDS011;2377;51.734;8.950;2023-01-05T06:16:54;21.50;;;7.07;;
4726;SDS011;2377;51.734;8.950;2023-01-05T06:19:21;20.23;;;6.40;;
4726;SDS011;2377;51.734;8.950;2023-01-05T06:21:48;25.27;;;8.43;;
4726;SDS011;2377;51.734;8.950;2023-01-05T06:24:16;30.63;;;7.60;;
4726;SDS011;2377;51.734;8.950;2023-01-05T06:26:44;28.90;;;8.47;;
4726;SDS011;2377;51.734;8.950;2023-01-05T06:29:11;26.77;;;9.80;;
4726;SDS011;2377;51.734;8.950;2023-01-05T06:31:38;27.70;;;8.43;;
4726;SDS011;2377;51.734;8.950;2023-01-05T06:34:05;33.13;;;9.23;;
4726;SDS011;2377;51.734;8.950;2023-01-05T06:36:32;28.03;;;8.67;;
4726;SDS011;2377;51.734;8.950;2023-01-05T06:38:59;30.33;;;8.57;;
4726;SDS011;2377;51.734;8.950;2023-01-05T06:41:27;22.20;;;6.93;;
4726;SDS011;2377;51.734;8.950;2023-01-05T06:43:54;31.40;;;9.30;;
4726;SDS011;2377;51.734;8.950;2023-01-05T06:46:21;25.43;;;8.10;;
4726;SDS011;2377;51.734;8.950;2023-01-05T06:48:48;29.13;;;7.43;;
4726;SDS011;2377;51.734;8.950;2023-01-05T06:51:16;19.73;;;6.80;;
4726;SDS011;2377;51.734;8.950;2023-01-05T06:53:43;18.83;;;6.90;;
4726;SDS011;2377;51.734;8.950;2023-01-05T06:56:10;33.53;;;8.80;;
4726;SDS011;2377;51.734;8.950;2023-01-05T06:58:39;31.63;;;9.33;;
4726;SDS011;2377;51.734;8.950;2023-01-05T07:01:06;19.37;;;6.33;;
4726;SDS011;2377;51.734;8.950;2023-01-05T07:03:33;31.13;;;8.77;;
4726;SDS011;2377;51.734;8.950;2023-01-05T07:06:00;31.37;;;8.20;;
4726;SDS011;2377;51.734;8.950;2023-01-05T07:08:28;27.77;;;7.67;;
4726;SDS011;2377;51.734;8.950;2023-01-05T07:10:55;30.63;;;7.63;;
4726;SDS011;2377;51.734;8.950;2023-01-05T07:13:22;34.20;;;8.70;;
4726;SDS011;2377;51.734;8.950;2023-01-05T07:15:50;32.87;;;8.37;;
4726;SDS011;2377;51.734;8.950;2023-01-05T07:18:17;29.63;;;7.67;;
4726;SDS011;2377;51.734;8.950;2023-01-05T07:20:44;22.10;;;7.60;;
4726;SDS011;2377;51.734;8.950;2023-01-05T07:23:11;21.53;;;8.10;;
4726;SDS011;2377;51.734;8.950;2023-01-05T07:25:38;23.47;;;8.00;;
4726;SDS011;2377;51.734;8.950;2023-01-05T07:28:05;36.70;;;9.43;;
4726;SDS011;2377;51.734;8.950;2023-01-05T07:30:32;29.67;;;9.23;;
4726;SDS011;2377;51.734;8.950;2023-01-05T07:33:01;27.07;;;9.13;;
4726;SDS011;2377;51.734;8.950;2023-01-05T07:35:28;37.97;;;8.70;;
4726;SDS011;2377;51.734;8.950;2023-01-05T07:37:55;39.03;;;10.90;;
4726;SDS011;2377;51.734;8.950;2023-01-05T07:40:22;24.77;;;7.50;;
4726;SDS011;2377;51.734;8.950;2023-01-05T07:42:50;25.70;;;7.67;;
4726;SDS011;2377;51.734;8.950;2023-01-05T07:45:17;18.37;;;7.40;;
4726;SDS011;2377;51.734;8.950;2023-01-05T07:47:46;28.70;;;7.67;;
4726;SDS011;2377;51.734;8.950;2023-01-05T07:50:14;26.20;;;8.10;;
4726;SDS011;2377;51.734;8.950;2023-01-05T07:52:41;25.43;;;8.83;;
4726;SDS011;2377;51.734;8.950;2023-01-05T07:55:08;34.87;;;9.70;;
4726;SDS011;2377;51.734;8.950;2023-01-05T07:57:35;31.53;;;10.10;;
4726;SDS011;2377;51.734;8.950;2023-01-05T08:00:03;21.00;;;8.73;;
4726;SDS011;2377;51.734;8.950;2023-01-05T08:02:31;39.43;;;11.20;;
4726;SDS011;2377;51.734;8.950;2023-01-05T08:04:58;29.67;;;10.23;;
4726;SDS011;2377;51.734;8.950;2023-01-05T08:07:27;27.70;;;8.90;;
4726;SDS011;2377;51.734;8.950;2023-01-05T08:09:54;33.53;;;9.60;;
4726;SDS011;2377;51.734;8.950;2023-01-05T08:12:38;35.17;;;10.17;;
4726;SDS011;2377;51.734;8.950;2023-01-05T08:15:19;28.97;;;9.80;;
4726;SDS011;2377;51.734;8.950;2023-01-05T08:17:46;34.90;;;10.33;;
4726;SDS011;2377;51.734;8.950;2023-01-05T08:20:13;29.13;;;9.13;;
4726;SDS011;2377;51.734;8.950;2023-01-05T08:22:42;36.57;;;9.30;;
4726;SDS011;2377;51.734;8.950;2023-01-05T08:25:09;28.30;;;7.80;;
4726;SDS011;2377;51.734;8.950;2023-01-05T08:27:36;37.33;;;8.67;;
4726;SDS011;2377;51.734;8.950;2023-01-05T08:30:03;33.70;;;9.23;;
4726;SDS011;2377;51.734;8.950;2023-01-05T08:32:32;24.13;;;7.40;;
4726;SDS011;2377;51.734;8.950;2023-01-05T08:34:59;31.37;;;7.50;;
4726;SDS011;2377;51.734;8.950;2023-01-05T08:37:26;26.13;;;8.20;;
4726;SDS011;2377;51.734;8.950;2023-01-05T08:39:54;31.67;;;8.40;;
4726;SDS011;2377;51.734;8.950;2023-01-05T08:42:22;30.33;;;8.97;;
4726;SDS011;2377;51.734;8.950;2023-01-05T08:44:49;27.10;;;7.40;;
4726;SDS011;2377;51.734;8.950;2023-01-05T08:47:17;39.47;;;8.97;;
4726;SDS011;2377;51.734;8.950;2023-01-05T08:49:44;29.30;;;8.07;;
4726;SDS011;2377;51.734;8.950;2023-01-05T08:52:11;31.63;;;8.90;;
4726;SDS011;2377;51.734;8.950;2023-01-05T08:54:38;26.90;;;9.10;;
4726;SDS011;2377;51.734;8.950;2023-01-05T08:57:06;26.77;;;8.47;;
4726;SDS011;2377;51.734;8.950;2023-01-05T08:59:33;30.17;;;7.50;;
4726;SDS011;2377;51.734;8.950;2023-01-05T09:02:00;33.80;;;9.60;;
4726;SDS011;2377;51.734;8.950;2023-01-05T09:04:27;32.40;;;8.40;;
4726;SDS011;2377;51.734;8.950;2023-01-05T09:06:54;27.33;;;8.27;;
4726;SDS011;2377;51.734;8.950;2023-01-05T09:09:22;35.13;;;8.87;;
4726;SDS011;2377;51.734;8.950;2023-01-05T09:11:49;30.43;;;9.70;;
4726;SDS011;2377;51.734;8.950;2023-01-05T09:14:17;24.30;;;8.10;;
4726;SDS011;2377;51.734;8.950;2023-01-05T09:16:44;30.60;;;10.10;;
4726;SDS011;2377;51.734;8.950;2023-01-05T09:19:12;39.30;;;10.43;;
4726;SDS011;2377;51.734;8.950;2023-01-05T09:21:40;27.90;;;9.37;;
4726;SDS011;2377;51.734;8.950;2023-01-05T09:24:07;31.77;;;10.27;;
4726;SDS011;2377;51.734;8.950;2023-01-05T09:26:36;30.13;;;10.80;;
4726;SDS011;2377;51.734;8.950;2023-01-05T09:29:04;26.40;;;8.03;;
4726;SDS011;2377;51.734;8.950;2023-01-05T09:31:32;34.33;;;9.70;;
4726;SDS011;2377;51.734;8.950;2023-01-05T09:33:59;26.70;;;8.57;;
4726;SDS011;2377;51.734;8.950;2023-01-05T09:36:27;26.40;;;9.10;;
4726;SDS011;2377;51.734;8.950;2023-01-05T09:38:54;24.73;;;8.90;;
4726;SDS011;2377;51.734;8.950;2023-01-05T09:41:22;30.17;;;8.97;;
4726;SDS011;2377;51.734;8.950;2023-01-05T09:43:56;35.20;;;9.97;;
4726;SDS011;2377;51.734;8.950;2023-01-05T09:46:28;33.63;;;9.00;;
4726;SDS011;2377;51.734;8.950;2023-01-05T09:49:02;40.80;;;11.10;;
4726;SDS011;2377;51.734;8.950;2023-01-05T09:51:32;34.27;;;9.47;;
4726;SDS011;2377;51.734;8.950;2023-01-05T09:54:00;28.17;;;10.60;;
4726;SDS011;2377;51.734;8.950;2023-01-05T09:56:29;33.83;;;9.90;;
4726;SDS011;2377;51.734;8.950;2023-01-05T09:59:02;26.03;;;9.33;;
4726;SDS011;2377;51.734;8.950;2023-01-05T10:01:38;23.47;;;7.83;;
4726;SDS011;2377;51.734;8.950;2023-01-05T10:04:09;26.67;;;9.20;;
4726;SDS011;2377;51.734;8.950;2023-01-05T10:06:42;42.13;;;10.57;;
4726;SDS011;2377;51.734;8.950;2023-01-05T10:09:14;22.50;;;9.43;;
4726;SDS011;2377;51.734;8.950;2023-01-05T10:11:46;39.70;;;11.87;;
4726;SDS011;2377;51.734;8.950;2023-01-05T10:14:37;31.87;;;10.97;;
4726;SDS011;2377;51.734;8.950;2023-01-05T10:17:11;33.10;;;10.53;;
4726;SDS011;2377;51.734;8.950;2023-01-05T10:19:43;28.40;;;9.80;;
4726;SDS011;2377;51.734;8.950;2023-01-05T10:22:17;33.23;;;9.77;;
4726;SDS011;2377;51.734;8.950;2023-01-05T10:25:07;37.50;;;10.70;;
4726;SDS011;2377;51.734;8.950;2023-01-05T10:27:46;27.43;;;9.90;;
4726;SDS011;2377;51.734;8.950;2023-01-05T10:30:22;29.60;;;8.93;;
4726;SDS011;2377;51.734;8.950;2023-01-05T10:32:56;29.80;;;9.07;;
4726;SDS011;2377;51.734;8.950;2023-01-05T10:35:30;24.47;;;8.23;;
4726;SDS011;2377;51.734;8.950;2023-01-05T10:38:21;32.23;;;8.70;;
4726;SDS011;2377;51.734;8.950;2023-01-05T10:41:05;24.13;;;7.60;;
4726;SDS011;2377;51.734;8.950;2023-01-05T10:43:57;32.97;;;7.80;;
4726;SDS011;2377;51.734;8.950;2023-01-05T10:46:55;28.50;;;8.17;;
4726;SDS011;2377;51.734;8.950;2023-01-05T10:49:25;26.10;;;8.83;;
4726;SDS011;2377;51.734;8.950;2023-01-05T10:51:57;28.13;;;8.17;;
4726;SDS011;2377;51.734;8.950;2023-01-05T10:54:31;33.37;;;8.90;;
4726;SDS011;2377;51.734;8.950;2023-01-05T11:00:04;25.63;;;7.80;;
4726;SDS011;2377;51.734;8.950;2023-01-05T11:02:37;24.10;;;7.97;;
4726;SDS011;2377;51.734;8.950;2023-01-05T11:05:16;22.27;;;8.20;;
4726;SDS011;2377;51.734;8.950;2023-01-05T11:07:52;26.97;;;9.00;;
4726;SDS011;2377;51.734;8.950;2023-01-05T11:10:23;29.17;;;9.80;;
4726;SDS011;2377;51.734;8.950;2023-01-05T11:12:59;27.10;;;8.60;;
4726;SDS011;2377;51.734;8.950;2023-01-05T11:15:31;24.37;;;8.80;;
4726;SDS011;2377;51.734;8.950;2023-01-05T11:18:14;37.13;;;10.57;;
4726;SDS011;2377;51.734;8.950;2023-01-05T11:21:05;28.17;;;8.80;;
4726;SDS011;2377;51.734;8.950;2023-01-05T11:23:37;33.67;;;9.70;;
4726;SDS011;2377;51.734;8.950;2023-01-05T11:26:10;39.47;;;10.80;;
4726;SDS011;2377;51.734;8.950;2023-01-05T11:31:40;32.73;;;9.53;;
4726;SDS011;2377;51.734;8.950;2023-01-05T11:34:16;32.33;;;7.93;;
4726;SDS011;2377;51.734;8.950;2023-01-05T11:37:01;29.80;;;9.47;;
4726;SDS011;2377;51.734;8.950;2023-01-05T11:39:32;24.43;;;8.63;;
4726;SDS011;2377;51.734;8.950;2023-01-05T11:42:09;31.53;;;9.27;;
4726;SDS011;2377;51.734;8.950;2023-01-05T11:44:41;20.17;;;7.73;;
4726;SDS011;2377;51.734;8.950;2023-01-05T11:47:17;38.97;;;8.93;;
4726;SDS011;2377;51.734;8.950;2023-01-05T11:49:58;29.33;;;8.63;;
4726;SDS011;2377;51.734;8.950;2023-01-05T11:52:34;38.00;;;11.13;;
4726;SDS011;2377;51.734;8.950;2023-01-05T11:58:10;34.63;;;7.47;;
4726;SDS011;2377;51.734;8.950;2023-01-05T12:00:53;30.60;;;8.20;;
4726;SDS011;2377;51.734;8.950;2023-01-05T12:04:09;22.57;;;8.47;;
4726;SDS011;2377;51.734;8.950;2023-01-05T12:07:16;36.67;;;8.30;;
4726;SDS011;2377;51.734;8.950;2023-01-05T12:09:58;46.10;;;8.50;;
4726;SDS011;2377;51.734;8.950;2023-01-05T12:12:46;29.57;;;8.20;;
4726;SDS011;2377;51.734;8.950;2023-01-05T12:15:33;29.40;;;7.03;;
4726;SDS011;2377;51.734;8.950;2023-01-05T12:18:35;32.67;;;7.80;;
4726;SDS011;2377;51.734;8.950;2023-01-05T12:21:26;21.40;;;7.37;;
4726;SDS011;2377;51.734;8.950;2023-01-05T12:24:11;31.50;;;7.40;;
4726;SDS011;2377;51.734;8.950;2023-01-05T12:27:17;28.30;;;7.10;;
4726;SDS011;2377;51.734;8.950;2023-01-05T12:30:02;22.43;;;7.10;;
4726;SDS011;2377;51.734;8.950;2023-01-05T12:33:00;25.43;;;6.53;;
4726;SDS011;2377;51.734;8.950;2023-01-05T12:38:47;28.37;;;6.90;;
4726;SDS011;2377;51.734;8.950;2023-01-05T12:41:38;28.20;;;6.63;;
4726;SDS011;2377;51.734;8.950;2023-01-05T12:44:37;21.33;;;5.50;;
4726;SDS011;2377;51.734;8.950;2023-01-05T12:47:26;38.23;;;6.87;;
4726;SDS011;2377;51.734;8.950;2023-01-05T12:50:16;35.33;;;6.63;;
4726;SDS011;2377;51.734;8.950;2023-01-05T12:52:53;28.40;;;7.80;;
4726;SDS011;2377;51.734;8.950;2023-01-05T12:55:27;28.30;;;7.63;;
4726;SDS011;2377;51.734;8.950;2023-01-05T12:58:02;22.33;;;6.33;;
4726;SDS011;2377;51.734;8.950;2023-01-05T13:00:39;33.53;;;8.37;;
4726;SDS011;2377;51.734;8.950;2023-01-05T13:03:13;25.27;;;6.33;;
4726;SDS011;2377;51.734;8.950;2023-01-05T13:05:49;19.10;;;6.00;;
4726;SDS011;2377;51.734;8.950;2023-01-05T13:08:25;20.00;;;5.73;;
4726;SDS011;2377;51.734;8.950;2023-01-05T13:11:03;25.23;;;7.40;;
4726;SDS011;2377;51.734;8.950;2023-01-05T13:13:41;30.40;;;7.60;;
4726;SDS011;2377;51.734;8.950;2023-01-05T13:16:20;26.50;;;7.07;;
4726;SDS011;2377;51.734;8.950;2023-01-05T13:18:52;27.33;;;7.63;;
4726;SDS011;2377;51.734;8.950;2023-01-05T13:21:25;27.03;;;7.03;;
4726;SDS011;2377;51.734;8.950;2023-01-05T13:23:56;32.83;;;7.10;;
4726;SDS011;2377;51.734;8.950;2023-01-05T13:26:31;20.70;;;6.87;;
4726;SDS011;2377;51.734;8.950;2023-01-05T13:28:58;28.90;;;6.27;;
4726;SDS011;2377;51.734;8.950;2023-01-05T13:37:47;27.23;;;6.93;;
4726;SDS011;2377;51.734;8.950;2023-01-05T13:41:01;22.83;;;6.77;;
4726;SDS011;2377;51.734;8.950;2023-01-05T13:50:22;27.37;;;7.37;;
4726;SDS011;2377;51.734;8.950;2023-01-05T13:53:11;34.57;;;7.50;;
4726;SDS011;2377;51.734;8.950;2023-01-05T13:55:46;28.37;;;7.17;;
4726;SDS011;2377;51.734;8.950;2023-01-05T13:58:26;25.27;;;7.33;;
4726;SDS011;2377;51.734;8.950;2023-01-05T14:01:05;30.13;;;7.40;;
4726;SDS011;2377;51.734;8.950;2023-01-05T14:03:37;17.93;;;5.70;;
4726;SDS011;2377;51.734;8.950;2023-01-05T14:06:15;19.43;;;6.10;;
4726;SDS011;2377;51.734;8.950;2023-01-05T14:08:52;27.60;;;7.00;;
4726;SDS011;2377;51.734;8.950;2023-01-05T14:11:25;30.10;;;6.20;;
4726;SDS011;2377;51.734;8.950;2023-01-05T14:13:54;28.23;;;6.00;;
4726;SDS011;2377;51.734;8.950;2023-01-05T14:19:23;30.67;;;6.03;;
4726;SDS011;2377;51.734;8.950;2023-01-05T14:22:22;25.53;;;6.37;;
4726;SDS011;2377;51.734;8.950;2023-01-05T14:28:22;27.60;;;6.60;;
4726;SDS011;2377;51.734;8.950;2023-01-05T14:34:15;21.10;;;5.60;;
4726;SDS011;2377;51.734;8.950;2023-01-05T14:36:58;26.87;;;6.40;;
4726;SDS011;2377;51.734;8.950;2023-01-05T14:39:33;21.67;;;5.63;;
4726;SDS011;2377;51.734;8.950;2023-01-05T14:42:14;32.47;;;6.87;;
4726;SDS011;2377;51.734;8.950;2023-01-05T14:45:00;31.37;;;7.30;;
4726;SDS011;2377;51.734;8.950;2023-01-05T14:47:32;28.97;;;5.43;;
4726;SDS011;2377;51.734;8.950;2023-01-05T14:50:05;23.97;;;5.77;;
4726;SDS011;2377;51.734;8.950;2023-01-05T14:52:54;28.17;;;5.77;;
4726;SDS011;2377;51.734;8.950;2023-01-05T14:55:26;25.07;;;5.30;;
4726;SDS011;2377;51.734;8.950;2023-01-05T14:57:57;24.43;;;5.77;;
4726;SDS011;2377;51.734;8.950;2023-01-05T15:00:36;28.20;;;6.87;;
4726;SDS011;2377;51.734;8.950;2023-01-05T15:03:18;23.57;;;6.10;;
4726;SDS011;2377;51.734;8.950;2023-01-05T15:06:04;22.67;;;5.80;;
4726;SDS011;2377;51.734;8.950;2023-01-05T15:08:41;18.33;;;5.47;;
4726;SDS011;2377;51.734;8.950;2023-01-05T15:12:00;35.70;;;6.80;;
4726;SDS011;2377;51.734;8.950;2023-01-05T15:15:33;26.03;;;5.20;;
4726;SDS011;2377;51.734;8.950;2023-01-05T15:18:26;27.47;;;5.70;;
4726;SDS011;2377;51.734;8.950;2023-01-05T15:21:45;20.43;;;5.40;;
4726;SDS011;2377;51.734;8.950;2023-01-05T15:24:42;37.00;;;6.63;;
4726;SDS011;2377;51.734;8.950;2023-01-05T15:27:40;23.43;;;6.50;;
4726;SDS011;2377;51.734;8.950;2023-01-05T15:30:39;33.47;;;6.63;;
4726;SDS011;2377;51.734;8.950;2023-01-05T15:33:45;19.83;;;5.43;;
4726;SDS011;2377;51.734;8.950;2023-01-05T15:36:20;20.13;;;5.60;;
4726;SDS011;2377;51.734;8.950;2023-01-05T15:38:53;22.60;;;6.27;;
4726;SDS011;2377;51.734;8.950;2023-01-05T15:41:23;19.13;;;5.87;;
4726;SDS011;2377;51.734;8.950;2023-01-05T15:43:53;21.60;;;6.97;;
4726;SDS011;2377;51.734;8.950;2023-01-05T15:46:22;25.87;;;6.53;;
4726;SDS011;2377;51.734;8.950;2023-01-05T15:48:57;26.20;;;7.33;;
4726;SDS011;2377;51.734;8.950;2023-01-05T15:51:25;35.77;;;7.53;;
4726;SDS011;2377;51.734;8.950;2023-01-05T15:53:56;22.80;;;6.83;;
4726;SDS011;2377;51.734;8.950;2023-01-05T15:56:30;28.43;;;6.90;;
4726;SDS011;2377;51.734;8.950;2023-01-05T15:59:00;24.77;;;7.20;;
4726;SDS011;2377;51.734;8.950;2023-01-05T16:01:29;32.17;;;7.73;;
4726;SDS011;2377;51.734;8.950;2023-01-05T16:04:04;22.90;;;7.23;;
4726;SDS011;2377;51.734;8.950;2023-01-05T16:06:33;31.07;;;8.50;;
4726;SDS011;2377;51.734;8.950;2023-01-05T16:09:07;29.13;;;6.87;;
4726;SDS011;2377;51.734;8.950;2023-01-05T16:11:38;33.30;;;7.90;;
4726;SDS011;2377;51.734;8.950;2023-01-05T16:14:10;23.60;;;7.43;;
4726;SDS011;2377;51.734;8.950;2023-01-05T16:16:46;20.20;;;7.60;;
4726;SDS011;2377;51.734;8.950;2023-01-05T16:19:21;19.10;;;7.03;;